KBFI/BFI METAR and TAF weather

Enter ICAO airport designator
Station Type Date Time Source
KBFI METAR 2018/10/19 15:53 UTC NOAA

KBFI 191553Z 14003KT 1/8SM FG VV001 08/08 A3030 RMK AO2 SLP260 T00830078


Station Type Date Time Source
KBFI Decoded METAR 2018/10/19 15:53 UTC NOAA

SEATTLE BOEING FIELD, WA, United States (KBFI) 47-33N 122-19W 4M
Oct 19, 2018 - 11:53 AM EDT / 2018.10.19 1553 UTC
Wind: from the SE (140 degrees) at 3 MPH (3 KT):0
Visibility: 1/8 mile(s):0
Sky conditions: obscured
Weather: fog
Temperature: 46.9 F (8.3 C)
Dew Point: 46.0 F (7.8 C)
Relative Humidity: 96%
Pressure (altimeter): 30.3 in. Hg (1026 hPa)
ob: KBFI 191553Z 14003KT 1/8SM FG VV001 08/08 A3030 RMK AO2 SLP260 T00830078
cycle: 16

Station Type Date Time Source
KBFI TAF 2018/10/19 15:06 UTC NOAA

TAF
AMD KBFI 191504Z 1915/2012 15004KT 1/4SM FG VV001
TEMPO 1915/1917 2SM BR OVC004
FM191800 30004KT P6SM SCT250
FM200300 VRB03KT P6SM SKC
FM201100 VRB03KT 5SM BR BCFG SCT003


Example: see airport list